sensor_id;sensor_type;location;lat;lon;timestamp;pressure;altitude;pressure_sealevel;temperature;humidity
5455;BME280;2750;49.050;9.250;2023-07-13T00:03:52;98714.81;;;21.71;72.82
5455;BME280;2750;49.050;9.250;2023-07-13T00:08:55;98712.41;;;21.77;72.48
5455;BME280;2750;49.050;9.250;2023-07-13T00:13:56;98708.56;;;21.72;72.66
5455;BME280;2750;49.050;9.250;2023-07-13T00:18:58;98707.06;;;21.60;72.97
5455;BME280;2750;49.050;9.250;2023-07-13T00:24:02;98699.16;;;21.40;73.28
5455;BME280;2750;49.050;9.250;2023-07-13T00:29:03;98691.81;;;21.34;73.35
5455;BME280;2750;49.050;9.250;2023-07-13T00:34:08;98697.25;;;21.23;73.91
5455;BME280;2750;49.050;9.250;2023-07-13T00:39:12;98697.25;;;21.14;74.14
5455;BME280;2750;49.050;9.250;2023-07-13T00:44:14;98704.59;;;21.39;73.44
5455;BME280;2750;49.050;9.250;2023-07-13T00:49:17;98702.41;;;21.15;74.19
5455;BME280;2750;49.050;9.250;2023-07-13T00:54:25;98697.78;;;20.98;74.53
5455;BME280;2750;49.050;9.250;2023-07-13T00:59:28;98696.66;;;21.00;74.26
5455;BME280;2750;49.050;9.250;2023-07-13T01:04:30;98701.25;;;21.08;74.08
5455;BME280;2750;49.050;9.250;2023-07-13T01:09:32;98705.00;;;20.77;75.13
5455;BME280;2750;49.050;9.250;2023-07-13T01:14:34;98714.16;;;20.73;74.80
5455;BME280;2750;49.050;9.250;2023-07-13T01:19:38;98718.31;;;20.66;75.09
5455;BME280;2750;49.050;9.250;2023-07-13T01:24:45;98707.97;;;20.43;75.64
5455;BME280;2750;49.050;9.250;2023-07-13T01:29:47;98712.00;;;20.47;75.39
5455;BME280;2750;49.050;9.250;2023-07-13T01:34:49;98715.22;;;20.51;75.04
5455;BME280;2750;49.050;9.250;2023-07-13T01:39:52;98710.38;;;20.46;75.47
5455;BME280;2750;49.050;9.250;2023-07-13T01:44:53;98713.84;;;20.57;75.10
5455;BME280;2750;49.050;9.250;2023-07-13T01:49:55;98717.69;;;20.43;75.54
5455;BME280;2750;49.050;9.250;2023-07-13T01:54:58;98716.31;;;20.39;75.48
5455;BME280;2750;49.050;9.250;2023-07-13T01:59:59;98724.94;;;20.20;76.13
5455;BME280;2750;49.050;9.250;2023-07-13T02:05:01;98719.25;;;19.85;77.15
5455;BME280;2750;49.050;9.250;2023-07-13T02:10:04;98731.88;;;19.91;77.57
5455;BME280;2750;49.050;9.250;2023-07-13T02:15:07;98732.94;;;19.79;77.91
5455;BME280;2750;49.050;9.250;2023-07-13T02:20:09;98740.34;;;19.64;78.53
5455;BME280;2750;49.050;9.250;2023-07-13T02:25:12;98743.38;;;19.90;77.53
5455;BME280;2750;49.050;9.250;2023-07-13T02:30:14;98741.31;;;19.42;78.61
5455;BME280;2750;49.050;9.250;2023-07-13T02:35:16;98740.34;;;19.64;77.87
5455;BME280;2750;49.050;9.250;2023-07-13T02:40:19;98738.88;;;19.50;78.08
5455;BME280;2750;49.050;9.250;2023-07-13T02:45:20;98738.72;;;19.52;78.03
5455;BME280;2750;49.050;9.250;2023-07-13T02:50:22;98732.66;;;19.40;78.62
5455;BME280;2750;49.050;9.250;2023-07-13T02:55:25;98735.13;;;19.21;79.32
5455;BME280;2750;49.050;9.250;2023-07-13T03:00:26;98749.06;;;19.33;78.80
5455;BME280;2750;49.050;9.250;2023-07-13T03:05:28;98745.13;;;19.38;77.93
5455;BME280;2750;49.050;9.250;2023-07-13T03:10:31;98754.81;;;19.38;77.42
5455;BME280;2750;49.050;9.250;2023-07-13T03:15:32;98757.41;;;19.49;76.72
5455;BME280;2750;49.050;9.250;2023-07-13T03:20:34;98761.56;;;19.51;76.57
5455;BME280;2750;49.050;9.250;2023-07-13T03:25:37;98761.34;;;19.54;76.61
5455;BME280;2750;49.050;9.250;2023-07-13T03:30:39;98767.84;;;19.39;77.11
5455;BME280;2750;49.050;9.250;2023-07-13T03:35:41;98775.16;;;19.47;77.37
5455;BME280;2750;49.050;9.250;2023-07-13T03:40:44;98780.59;;;19.76;76.48
5455;BME280;2750;49.050;9.250;2023-07-13T03:45:45;98783.50;;;19.41;77.40
5455;BME280;2750;49.050;9.250;2023-07-13T03:50:48;98793.31;;;19.71;77.10
5455;BME280;2750;49.050;9.250;2023-07-13T03:55:51;98800.09;;;19.94;76.62
5455;BME280;2750;49.050;9.250;2023-07-13T04:00:52;98811.41;;;20.57;74.95
5455;BME280;2750;49.050;9.250;2023-07-13T04:05:55;98814.53;;;21.40;72.90
5455;BME280;2750;49.050;9.250;2023-07-13T04:11:02;98816.28;;;21.11;73.62
5455;BME280;2750;49.050;9.250;2023-07-13T04:16:04;98826.41;;;20.96;74.74
5455;BME280;2750;49.050;9.250;2023-07-13T04:21:05;98827.09;;;20.98;74.90
5455;BME280;2750;49.050;9.250;2023-07-13T04:26:08;98837.41;;;20.61;76.16
5455;BME280;2750;49.050;9.250;2023-07-13T04:31:10;98836.47;;;20.21;77.18
5455;BME280;2750;49.050;9.250;2023-07-13T04:36:12;98842.72;;;19.99;77.90
5455;BME280;2750;49.050;9.250;2023-07-13T04:41:15;98836.41;;;20.32;76.67
5455;BME280;2750;49.050;9.250;2023-07-13T04:46:17;98829.44;;;20.51;76.16
5455;BME280;2750;49.050;9.250;2023-07-13T04:51:19;98833.06;;;20.50;76.63
5455;BME280;2750;49.050;9.250;2023-07-13T04:56:22;98835.13;;;20.87;75.32
5455;BME280;2750;49.050;9.250;2023-07-13T05:01:24;98842.78;;;20.99;75.65
5455;BME280;2750;49.050;9.250;2023-07-13T05:06:26;98841.09;;;21.38;75.26
5455;BME280;2750;49.050;9.250;2023-07-13T05:11:28;98835.38;;;22.01;73.71
5455;BME280;2750;49.050;9.250;2023-07-13T05:16:30;98831.56;;;22.59;71.04
5455;BME280;2750;49.050;9.250;2023-07-13T05:21:32;98832.88;;;23.27;69.87
5455;BME280;2750;49.050;9.250;2023-07-13T05:26:35;98833.22;;;24.81;65.48
5455;BME280;2750;49.050;9.250;2023-07-13T05:31:36;98836.97;;;24.10;66.14
5455;BME280;2750;49.050;9.250;2023-07-13T05:36:38;98844.41;;;23.89;67.27
5455;BME280;2750;49.050;9.250;2023-07-13T05:41:41;98844.31;;;23.10;69.30
5455;BME280;2750;49.050;9.250;2023-07-13T05:46:42;98843.59;;;22.44;71.63
5455;BME280;2750;49.050;9.250;2023-07-13T05:51:44;98852.09;;;22.84;70.64
5455;BME280;2750;49.050;9.250;2023-07-13T05:56:47;98857.50;;;23.38;69.55
5455;BME280;2750;49.050;9.250;2023-07-13T06:01:48;98866.31;;;23.73;69.50
5455;BME280;2750;49.050;9.250;2023-07-13T06:06:52;98859.03;;;24.37;67.67
5455;BME280;2750;49.050;9.250;2023-07-13T06:11:55;98864.78;;;25.26;65.87
5455;BME280;2750;49.050;9.250;2023-07-13T06:16:57;98862.16;;;28.17;60.71
5455;BME280;2750;49.050;9.250;2023-07-13T06:21:58;98881.16;;;28.52;58.50
5455;BME280;2750;49.050;9.250;2023-07-13T06:27:01;98884.31;;;27.72;57.96
5455;BME280;2750;49.050;9.250;2023-07-13T06:32:03;98887.44;;;26.75;60.06
5455;BME280;2750;49.050;9.250;2023-07-13T06:37:06;98887.84;;;28.70;57.65
5455;BME280;2750;49.050;9.250;2023-07-13T06:42:09;98901.28;;;28.91;55.63
5455;BME280;2750;49.050;9.250;2023-07-13T06:47:11;98901.03;;;28.49;57.06
5455;BME280;2750;49.050;9.250;2023-07-13T06:52:12;98900.16;;;30.29;54.50
5455;BME280;2750;49.050;9.250;2023-07-13T06:57:15;98900.66;;;31.49;51.80
5455;BME280;2750;49.050;9.250;2023-07-13T07:02:17;98903.50;;;32.81;49.67
5455;BME280;2750;49.050;9.250;2023-07-13T07:07:18;98905.72;;;33.03;48.62
5455;BME280;2750;49.050;9.250;2023-07-13T07:12:21;98909.41;;;33.67;47.83
5455;BME280;2750;49.050;9.250;2023-07-13T07:17:23;98913.28;;;37.20;43.38
5455;BME280;2750;49.050;9.250;2023-07-13T07:22:25;98920.84;;;36.48;44.62
5455;BME280;2750;49.050;9.250;2023-07-13T07:27:29;98915.78;;;36.52;42.73
5455;BME280;2750;49.050;9.250;2023-07-13T07:32:30;98914.63;;;35.65;43.12
5455;BME280;2750;49.050;9.250;2023-07-13T07:37:32;98913.94;;;34.78;44.02
5455;BME280;2750;49.050;9.250;2023-07-13T07:42:35;98916.03;;;34.02;45.20
5455;BME280;2750;49.050;9.250;2023-07-13T07:47:36;98921.22;;;33.14;45.34
5455;BME280;2750;49.050;9.250;2023-07-13T07:52:38;98914.63;;;33.93;44.78
5455;BME280;2750;49.050;9.250;2023-07-13T07:57:41;98916.88;;;33.07;44.16
5455;BME280;2750;49.050;9.250;2023-07-13T08:02:43;98912.13;;;33.15;44.86
5455;BME280;2750;49.050;9.250;2023-07-13T08:07:45;98922.56;;;32.46;45.30
5455;BME280;2750;49.050;9.250;2023-07-13T08:12:47;98921.53;;;30.44;47.43
5455;BME280;2750;49.050;9.250;2023-07-13T08:17:49;98920.69;;;30.71;46.64
5455;BME280;2750;49.050;9.250;2023-07-13T08:22:51;98916.81;;;30.46;47.43
5455;BME280;2750;49.050;9.250;2023-07-13T08:27:54;98917.78;;;29.96;45.11
5455;BME280;2750;49.050;9.250;2023-07-13T08:32:55;98925.44;;;30.69;45.51
5455;BME280;2750;49.050;9.250;2023-07-13T08:37:57;98920.28;;;30.74;46.38
5455;BME280;2750;49.050;9.250;2023-07-13T08:43:02;98917.38;;;32.25;45.01
5455;BME280;2750;49.050;9.250;2023-07-13T08:48:05;98927.47;;;30.40;46.44
5455;BME280;2750;49.050;9.250;2023-07-13T08:53:12;98921.47;;;30.65;47.83
5455;BME280;2750;49.050;9.250;2023-07-13T08:58:17;98920.38;;;30.88;46.98
5455;BME280;2750;49.050;9.250;2023-07-13T09:03:22;98912.44;;;31.48;46.33
5455;BME280;2750;49.050;9.250;2023-07-13T09:08:36;98929.84;;;29.06;48.69
5455;BME280;2750;49.050;9.250;2023-07-13T09:13:44;98914.59;;;29.50;48.05
5455;BME280;2750;49.050;9.250;2023-07-13T09:18:49;98924.31;;;29.22;48.72
5455;BME280;2750;49.050;9.250;2023-07-13T09:23:53;98928.03;;;27.71;50.25
5455;BME280;2750;49.050;9.250;2023-07-13T09:29:03;98931.53;;;27.33;50.67
5455;BME280;2750;49.050;9.250;2023-07-13T09:34:09;98924.66;;;28.23;50.73
5455;BME280;2750;49.050;9.250;2023-07-13T09:39:14;98918.00;;;28.19;49.21
5455;BME280;2750;49.050;9.250;2023-07-13T09:44:27;98928.44;;;27.83;50.56
5455;BME280;2750;49.050;9.250;2023-07-13T09:49:34;98932.84;;;26.98;52.29
5455;BME280;2750;49.050;9.250;2023-07-13T09:54:36;98931.34;;;26.95;50.58
5455;BME280;2750;49.050;9.250;2023-07-13T09:59:43;98920.94;;;27.17;51.16
5455;BME280;2750;49.050;9.250;2023-07-13T10:04:55;98945.19;;;26.83;52.59
5455;BME280;2750;49.050;9.250;2023-07-13T10:09:59;98930.59;;;27.18;51.89
5455;BME280;2750;49.050;9.250;2023-07-13T10:15:09;98916.16;;;27.43;51.89
5455;BME280;2750;49.050;9.250;2023-07-13T10:20:15;98929.03;;;27.70;51.68
5455;BME280;2750;49.050;9.250;2023-07-13T10:25:18;98925.94;;;27.81;50.00
5455;BME280;2750;49.050;9.250;2023-07-13T10:30:25;98923.25;;;28.12;50.05
5455;BME280;2750;49.050;9.250;2023-07-13T10:35:29;98922.56;;;27.65;50.91
5455;BME280;2750;49.050;9.250;2023-07-13T10:40:35;98933.06;;;27.27;50.77
5455;BME280;2750;49.050;9.250;2023-07-13T10:45:40;98940.50;;;27.40;51.47
5455;BME280;2750;49.050;9.250;2023-07-13T10:50:44;98922.06;;;27.61;51.34
5455;BME280;2750;49.050;9.250;2023-07-13T10:55:58;98922.84;;;27.70;49.42
5455;BME280;2750;49.050;9.250;2023-07-13T11:01:08;98925.97;;;27.42;50.81
5455;BME280;2750;49.050;9.250;2023-07-13T11:06:13;98919.66;;;27.74;50.27
5455;BME280;2750;49.050;9.250;2023-07-13T11:11:35;98919.38;;;28.52;49.60
5455;BME280;2750;49.050;9.250;2023-07-13T11:16:43;98902.19;;;28.69;48.18
5455;BME280;2750;49.050;9.250;2023-07-13T11:22:10;98894.47;;;28.89;48.58
5455;BME280;2750;49.050;9.250;2023-07-13T11:27:22;98900.13;;;28.42;49.63
5455;BME280;2750;49.050;9.250;2023-07-13T11:32:30;98898.84;;;28.52;48.64
5455;BME280;2750;49.050;9.250;2023-07-13T11:37:32;98888.97;;;28.53;49.18
5455;BME280;2750;49.050;9.250;2023-07-13T11:42:35;98887.44;;;28.59;49.25
5455;BME280;2750;49.050;9.250;2023-07-13T11:47:42;98885.97;;;28.19;48.84
5455;BME280;2750;49.050;9.250;2023-07-13T11:52:44;98881.00;;;27.70;49.22
5455;BME280;2750;49.050;9.250;2023-07-13T11:57:49;98888.75;;;27.80;48.73
5455;BME280;2750;49.050;9.250;2023-07-13T12:02:54;98899.00;;;27.91;48.40
5455;BME280;2750;49.050;9.250;2023-07-13T12:07:57;98883.38;;;28.11;47.76
5455;BME280;2750;49.050;9.250;2023-07-13T12:13:01;98884.94;;;27.82;48.14
5455;BME280;2750;49.050;9.250;2023-07-13T12:18:12;98893.91;;;28.04;47.40
5455;BME280;2750;49.050;9.250;2023-07-13T12:23:21;98889.94;;;28.00;45.75
5455;BME280;2750;49.050;9.250;2023-07-13T12:28:31;98886.06;;;28.25;46.29
5455;BME280;2750;49.050;9.250;2023-07-13T12:33:35;98877.38;;;28.46;45.47
5455;BME280;2750;49.050;9.250;2023-07-13T12:38:38;98885.56;;;29.32;45.27
5455;BME280;2750;49.050;9.250;2023-07-13T12:43:40;98885.16;;;28.85;45.53
5455;BME280;2750;49.050;9.250;2023-07-13T12:48:43;98887.53;;;28.65;46.66
5455;BME280;2750;49.050;9.250;2023-07-13T12:53:48;98897.31;;;29.17;45.90
5455;BME280;2750;49.050;9.250;2023-07-13T12:58:57;98886.81;;;29.01;45.68
5455;BME280;2750;49.050;9.250;2023-07-13T13:04:02;98883.63;;;29.26;45.96
5455;BME280;2750;49.050;9.250;2023-07-13T13:09:11;98874.81;;;28.96;47.29
5455;BME280;2750;49.050;9.250;2023-07-13T13:14:13;98880.66;;;29.51;45.65
5455;BME280;2750;49.050;9.250;2023-07-13T13:19:18;98871.75;;;29.14;46.25
5455;BME280;2750;49.050;9.250;2023-07-13T13:24:23;98875.47;;;29.49;47.29
5455;BME280;2750;49.050;9.250;2023-07-13T13:29:25;98887.88;;;28.62;47.84
5455;BME280;2750;49.050;9.250;2023-07-13T13:34:28;98883.03;;;28.95;47.72
5455;BME280;2750;49.050;9.250;2023-07-13T13:39:36;98876.00;;;29.80;46.80
5455;BME280;2750;49.050;9.250;2023-07-13T13:44:38;98886.50;;;28.52;47.72
5455;BME280;2750;49.050;9.250;2023-07-13T13:49:42;98873.34;;;29.09;48.04
5455;BME280;2750;49.050;9.250;2023-07-13T13:54:44;98875.59;;;29.26;47.33
5455;BME280;2750;49.050;9.250;2023-07-13T13:59:45;98880.50;;;29.23;47.86
5455;BME280;2750;49.050;9.250;2023-07-13T14:04:50;98869.72;;;29.88;46.94
5455;BME280;2750;49.050;9.250;2023-07-13T14:09:57;98868.94;;;29.73;46.13
5455;BME280;2750;49.050;9.250;2023-07-13T14:14:59;98865.66;;;29.56;48.30
5455;BME280;2750;49.050;9.250;2023-07-13T14:20:02;98859.13;;;30.29;47.03
5455;BME280;2750;49.050;9.250;2023-07-13T14:25:05;98859.56;;;30.95;45.70
5455;BME280;2750;49.050;9.250;2023-07-13T14:30:12;98862.22;;;29.83;45.69
5455;BME280;2750;49.050;9.250;2023-07-13T14:35:18;98868.50;;;29.90;45.65
5455;BME280;2750;49.050;9.250;2023-07-13T14:40:25;98863.84;;;30.20;45.69
5455;BME280;2750;49.050;9.250;2023-07-13T14:45:28;98872.09;;;29.83;45.70
5455;BME280;2750;49.050;9.250;2023-07-13T14:50:32;98876.56;;;29.76;45.37
5455;BME280;2750;49.050;9.250;2023-07-13T14:55:35;98875.13;;;29.95;45.64
5455;BME280;2750;49.050;9.250;2023-07-13T15:00:37;98865.19;;;30.37;45.40
5455;BME280;2750;49.050;9.250;2023-07-13T15:05:40;98885.22;;;30.69;44.76
5455;BME280;2750;49.050;9.250;2023-07-13T15:10:42;98880.97;;;30.47;45.46
5455;BME280;2750;49.050;9.250;2023-07-13T15:15:46;98875.53;;;29.56;45.90
5455;BME280;2750;49.050;9.250;2023-07-13T15:20:50;98880.31;;;29.39;46.47
5455;BME280;2750;49.050;9.250;2023-07-13T15:25:53;98872.72;;;30.90;44.79
5455;BME280;2750;49.050;9.250;2023-07-13T15:30:55;98878.59;;;30.65;45.45
5455;BME280;2750;49.050;9.250;2023-07-13T15:35:58;98888.06;;;30.61;44.62
5455;BME280;2750;49.050;9.250;2023-07-13T15:41:01;98863.19;;;31.08;44.65
5455;BME280;2750;49.050;9.250;2023-07-13T15:46:03;98867.19;;;30.98;44.33
5455;BME280;2750;49.050;9.250;2023-07-13T15:51:11;98853.34;;;30.88;43.96
5455;BME280;2750;49.050;9.250;2023-07-13T15:56:19;98872.59;;;29.86;45.21
5455;BME280;2750;49.050;9.250;2023-07-13T16:01:21;98869.91;;;30.08;44.96
5455;BME280;2750;49.050;9.250;2023-07-13T16:06:28;98870.28;;;30.54;44.47
5455;BME280;2750;49.050;9.250;2023-07-13T16:11:33;98847.09;;;31.15;43.62
5455;BME280;2750;49.050;9.250;2023-07-13T16:16:34;98850.59;;;31.96;43.00
5455;BME280;2750;49.050;9.250;2023-07-13T16:21:40;98848.41;;;30.50;43.89
5455;BME280;2750;49.050;9.250;2023-07-13T16:26:43;98869.69;;;30.93;44.72
5455;BME280;2750;49.050;9.250;2023-07-13T16:31:59;98854.88;;;31.70;44.14
5455;BME280;2750;49.050;9.250;2023-07-13T16:37:05;98862.34;;;31.62;43.91
5455;BME280;2750;49.050;9.250;2023-07-13T16:42:12;98866.16;;;30.30;44.32
5455;BME280;2750;49.050;9.250;2023-07-13T16:47:15;98867.00;;;30.09;44.93
5455;BME280;2750;49.050;9.250;2023-07-13T16:52:19;98889.28;;;30.10;44.42
5455;BME280;2750;49.050;9.250;2023-07-13T16:57:23;98884.66;;;30.46;44.88
5455;BME280;2750;49.050;9.250;2023-07-13T17:02:34;98890.28;;;30.86;44.35
5455;BME280;2750;49.050;9.250;2023-07-13T17:07:37;98886.69;;;29.95;44.92
5455;BME280;2750;49.050;9.250;2023-07-13T17:12:39;98893.47;;;29.40;45.81
5455;BME280;2750;49.050;9.250;2023-07-13T17:17:40;98887.28;;;28.89;46.44
5455;BME280;2750;49.050;9.250;2023-07-13T17:22:45;98879.59;;;29.87;46.15
5455;BME280;2750;49.050;9.250;2023-07-13T17:27:47;98890.97;;;29.75;45.78
5455;BME280;2750;49.050;9.250;2023-07-13T17:32:50;98882.34;;;29.37;46.29
5455;BME280;2750;49.050;9.250;2023-07-13T17:37:56;98887.63;;;29.66;45.90
5455;BME280;2750;49.050;9.250;2023-07-13T17:42:58;98887.19;;;30.33;45.65
5455;BME280;2750;49.050;9.250;2023-07-13T17:48:00;98886.72;;;30.02;46.41
5455;BME280;2750;49.050;9.250;2023-07-13T17:53:13;98891.88;;;29.82;46.89
5455;BME280;2750;49.050;9.250;2023-07-13T17:58:16;98893.59;;;29.18;47.48
5455;BME280;2750;49.050;9.250;2023-07-13T18:03:20;98901.16;;;29.29;47.66
5455;BME280;2750;49.050;9.250;2023-07-13T18:08:28;98902.22;;;28.32;48.67
5455;BME280;2750;49.050;9.250;2023-07-13T18:13:30;98910.16;;;27.94;49.45
5455;BME280;2750;49.050;9.250;2023-07-13T18:18:39;98915.44;;;28.02;49.03
5455;BME280;2750;49.050;9.250;2023-07-13T18:23:42;98907.75;;;28.45;49.36
5455;BME280;2750;49.050;9.250;2023-07-13T18:28:45;98913.75;;;28.47;49.54
5455;BME280;2750;49.050;9.250;2023-07-13T18:33:49;98910.03;;;28.33;49.08
5455;BME280;2750;49.050;9.250;2023-07-13T18:38:54;98927.41;;;28.07;49.72
5455;BME280;2750;49.050;9.250;2023-07-13T18:43:55;98933.06;;;27.66;50.30
5455;BME280;2750;49.050;9.250;2023-07-13T18:48:57;98929.88;;;27.71;50.19
5455;BME280;2750;49.050;9.250;2023-07-13T18:54:00;98927.91;;;27.18;51.07
5455;BME280;2750;49.050;9.250;2023-07-13T18:59:02;98937.19;;;26.83;51.79
5455;BME280;2750;49.050;9.250;2023-07-13T19:04:25;98936.50;;;26.97;51.67
5455;BME280;2750;49.050;9.250;2023-07-13T19:09:29;98946.22;;;26.41;52.85
5455;BME280;2750;49.050;9.250;2023-07-13T19:14:31;98948.53;;;26.04;53.52
5455;BME280;2750;49.050;9.250;2023-07-13T19:19:32;98951.34;;;26.10;53.96
5455;BME280;2750;49.050;9.250;2023-07-13T19:24:35;98954.47;;;25.65;55.66
5455;BME280;2750;49.050;9.250;2023-07-13T19:29:37;98963.81;;;25.36;57.05
5455;BME280;2750;49.050;9.250;2023-07-13T19:34:39;98967.22;;;24.43;58.67
5455;BME280;2750;49.050;9.250;2023-07-13T19:39:42;98981.41;;;24.34;58.86
5455;BME280;2750;49.050;9.250;2023-07-13T19:44:46;98983.75;;;24.01;59.48
5455;BME280;2750;49.050;9.250;2023-07-13T19:49:48;98989.56;;;24.05;59.86
5455;BME280;2750;49.050;9.250;2023-07-13T19:54:53;99003.28;;;23.83;60.35
5455;BME280;2750;49.050;9.250;2023-07-13T19:59:55;99014.34;;;23.04;61.73
5455;BME280;2750;49.050;9.250;2023-07-13T20:04:59;99013.84;;;22.81;61.69
5455;BME280;2750;49.050;9.250;2023-07-13T20:10:12;99015.81;;;22.79;61.62
5455;BME280;2750;49.050;9.250;2023-07-13T20:15:18;99018.22;;;22.54;62.16
5455;BME280;2750;49.050;9.250;2023-07-13T20:20:22;99026.84;;;22.36;62.40
5455;BME280;2750;49.050;9.250;2023-07-13T20:25:29;99030.16;;;22.58;62.14
5455;BME280;2750;49.050;9.250;2023-07-13T20:30:32;99036.03;;;22.42;63.02
5455;BME280;2750;49.050;9.250;2023-07-13T20:35:35;99041.31;;;22.52;62.45
5455;BME280;2750;49.050;9.250;2023-07-13T20:40:38;99039.06;;;22.47;62.49
5455;BME280;2750;49.050;9.250;2023-07-13T20:45:39;99046.88;;;22.58;64.41
5455;BME280;2750;49.050;9.250;2023-07-13T20:50:41;99044.50;;;22.65;64.53
5455;BME280;2750;49.050;9.250;2023-07-13T20:55:45;99049.38;;;22.31;64.33
5455;BME280;2750;49.050;9.250;2023-07-13T21:00:47;99050.06;;;22.23;65.29
5455;BME280;2750;49.050;9.250;2023-07-13T21:05:49;99051.19;;;22.21;65.42
5455;BME280;2750;49.050;9.250;2023-07-13T21:10:52;99056.88;;;22.16;66.49
5455;BME280;2750;49.050;9.250;2023-07-13T21:15:54;99058.19;;;21.82;66.02
5455;BME280;2750;49.050;9.250;2023-07-13T21:20:55;99057.72;;;22.07;65.50
5455;BME280;2750;49.050;9.250;2023-07-13T21:25:59;99060.06;;;21.91;66.53
5455;BME280;2750;49.050;9.250;2023-07-13T21:31:03;99060.50;;;21.96;67.22
5455;BME280;2750;49.050;9.250;2023-07-13T21:36:05;99059.31;;;21.89;67.39
5455;BME280;2750;49.050;9.250;2023-07-13T21:41:19;99065.06;;;21.94;67.03
5455;BME280;2750;49.050;9.250;2023-07-13T21:46:23;99066.66;;;21.76;67.43
5455;BME280;2750;49.050;9.250;2023-07-13T21:51:26;99072.91;;;21.75;67.90
5455;BME280;2750;49.050;9.250;2023-07-13T21:56:30;99071.63;;;21.39;69.36
5455;BME280;2750;49.050;9.250;2023-07-13T22:01:32;99081.78;;;20.92;71.25
5455;BME280;2750;49.050;9.250;2023-07-13T22:06:34;99082.03;;;21.10;70.74
5455;BME280;2750;49.050;9.250;2023-07-13T22:11:37;99081.06;;;21.32;69.54
5455;BME280;2750;49.050;9.250;2023-07-13T22:16:38;99081.97;;;21.00;70.02
5455;BME280;2750;49.050;9.250;2023-07-13T22:21:40;99082.44;;;20.85;70.19
5455;BME280;2750;49.050;9.250;2023-07-13T22:26:43;99075.09;;;20.68;71.67
5455;BME280;2750;49.050;9.250;2023-07-13T22:31:45;99077.97;;;20.65;71.07
5455;BME280;2750;49.050;9.250;2023-07-13T22:36:48;99074.19;;;20.58;70.68
5455;BME280;2750;49.050;9.250;2023-07-13T22:41:51;99089.94;;;20.69;70.92
5455;BME280;2750;49.050;9.250;2023-07-13T22:46:54;99084.47;;;20.81;71.41
5455;BME280;2750;49.050;9.250;2023-07-13T22:51:56;99084.72;;;20.78;71.71
5455;BME280;2750;49.050;9.250;2023-07-13T22:57:00;99076.97;;;20.77;71.73
5455;BME280;2750;49.050;9.250;2023-07-13T23:02:02;99085.88;;;20.85;71.96
5455;BME280;2750;49.050;9.250;2023-07-13T23:07:04;99078.97;;;20.84;72.08
5455;BME280;2750;49.050;9.250;2023-07-13T23:12:09;99078.25;;;20.82;71.47
5455;BME280;2750;49.050;9.250;2023-07-13T23:17:11;99080.22;;;20.90;71.56
5455;BME280;2750;49.050;9.250;2023-07-13T23:22:22;99077.00;;;20.86;71.46
5455;BME280;2750;49.050;9.250;2023-07-13T23:27:27;99074.97;;;20.90;70.75
5455;BME280;2750;49.050;9.250;2023-07-13T23:32:28;99080.03;;;21.03;70.90
5455;BME280;2750;49.050;9.250;2023-07-13T23:37:30;99082.44;;;20.85;72.07
5455;BME280;2750;49.050;9.250;2023-07-13T23:42:33;99067.28;;;20.45;74.33
5455;BME280;2750;49.050;9.250;2023-07-13T23:47:34;99066.53;;;20.75;73.84
5455;BME280;2750;49.050;9.250;2023-07-13T23:52:36;99063.81;;;20.86;73.33
5455;BME280;2750;49.050;9.250;2023-07-13T23:57:39;99060.47;;;21.05;72.80
